createdAt,value
2023-04-04T00:00:37.362Z,9.85
2023-04-04T00:03:04.383Z,9.82
2023-04-04T00:05:31.784Z,9.90
2023-04-04T00:07:58.750Z,9.92
2023-04-04T00:10:25.738Z,9.84
2023-04-04T00:12:53.066Z,9.87
2023-04-04T00:15:20.054Z,9.86
2023-04-04T00:17:47.072Z,9.95
2023-04-04T00:20:14.445Z,9.92
2023-04-04T00:22:41.490Z,9.89
2023-04-04T00:25:09.709Z,9.78
2023-04-04T00:27:37.028Z,9.75
2023-04-04T00:30:04.134Z,9.82
2023-04-04T00:32:31.568Z,9.76
2023-04-04T00:34:58.995Z,9.82
2023-04-04T00:37:25.977Z,9.84
2023-04-04T00:39:52.990Z,9.76
2023-04-04T00:42:20.208Z,9.73
2023-04-04T00:44:47.121Z,9.81
2023-04-04T00:47:15.030Z,9.76
2023-04-04T00:49:44.935Z,9.71
2023-04-04T00:52:12.053Z,9.77
2023-04-04T00:54:39.474Z,9.63
2023-04-04T00:57:08.959Z,9.64
2023-04-04T00:59:36.539Z,9.72
2023-04-04T01:02:04.379Z,9.72
2023-04-04T01:04:32.264Z,9.73
2023-04-04T01:07:00.990Z,9.63
2023-04-04T01:09:29.184Z,9.57
2023-04-04T01:11:57.440Z,9.62
2023-04-04T01:14:26.587Z,9.73
2023-04-04T01:16:54.576Z,9.55
2023-04-04T01:19:33.871Z,9.66
2023-04-04T01:22:06.781Z,9.71
2023-04-04T01:24:34.977Z,9.57
2023-04-04T01:27:04.875Z,9.57
2023-04-04T01:29:34.125Z,9.51
2023-04-04T01:32:11.108Z,9.74
2023-04-04T01:34:51.816Z,9.69
2023-04-04T01:37:28.367Z,9.69
2023-04-04T01:40:21.819Z,9.74
2023-04-04T01:42:52.002Z,9.74
2023-04-04T01:45:23.140Z,9.67
2023-04-04T01:47:52.111Z,9.71
2023-04-04T01:50:22.980Z,9.78
2023-04-04T01:52:50.253Z,9.75
2023-04-04T01:55:17.259Z,9.66
2023-04-04T01:57:44.356Z,9.76
2023-04-04T02:00:12.002Z,9.72
2023-04-04T02:02:45.548Z,9.74
2023-04-04T02:05:12.863Z,9.74
2023-04-04T02:07:40.646Z,9.74
2023-04-04T02:10:18.825Z,9.83
2023-04-04T02:12:46.858Z,9.86
2023-04-04T02:15:14.087Z,9.77
2023-04-04T02:17:41.452Z,9.73
2023-04-04T02:20:08.650Z,9.69
2023-04-04T02:22:35.922Z,9.52
2023-04-04T02:25:03.183Z,9.48
2023-04-04T02:27:30.089Z,9.42
2023-04-04T02:29:57.189Z,9.47
2023-04-04T02:32:24.520Z,9.51
2023-04-04T02:34:52.465Z,9.51
2023-04-04T02:37:19.995Z,9.48
2023-04-04T02:39:50.684Z,9.58
2023-04-04T02:42:17.755Z,9.55
2023-04-04T02:44:45.563Z,9.54
2023-04-04T02:47:16.942Z,9.38
2023-04-04T02:49:45.267Z,9.51
2023-04-04T02:52:13.589Z,9.51
2023-04-04T02:54:44.888Z,9.62
2023-04-04T02:57:17.817Z,9.49
2023-04-04T02:59:44.989Z,9.60
2023-04-04T03:02:12.259Z,9.58
2023-04-04T03:04:39.349Z,9.53
2023-04-04T03:07:06.532Z,9.47
2023-04-04T03:09:33.460Z,9.51
2023-04-04T03:12:01.292Z,9.49
2023-04-04T03:14:30.167Z,9.48
2023-04-04T03:16:58.659Z,9.49
2023-04-04T03:19:25.999Z,9.53
2023-04-04T03:21:53.528Z,9.56
2023-04-04T03:24:20.692Z,9.47
2023-04-04T03:26:47.844Z,9.48
2023-04-04T03:29:14.790Z,9.45
2023-04-04T03:31:42.004Z,9.32
2023-04-04T03:34:09.840Z,9.41
2023-04-04T03:36:37.144Z,9.42
2023-04-04T03:39:04.376Z,9.42
2023-04-04T03:41:31.350Z,9.52
2023-04-04T03:43:58.247Z,9.53
2023-04-04T03:46:25.770Z,9.57
2023-04-04T03:48:52.710Z,9.56
2023-04-04T03:51:24.992Z,9.53
2023-04-04T03:53:51.971Z,9.57
2023-04-04T03:56:19.494Z,9.55
2023-04-04T03:58:46.553Z,9.50
2023-04-04T04:01:18.068Z,9.47
2023-04-04T04:03:45.188Z,9.44
2023-04-04T04:06:13.087Z,9.44
2023-04-04T04:08:40.035Z,9.55
2023-04-04T04:11:08.305Z,9.55
2023-04-04T04:13:39.095Z,9.53
2023-04-04T04:16:07.124Z,9.57
2023-04-04T04:18:35.570Z,9.60
2023-04-04T04:21:05.222Z,9.49
2023-04-04T04:23:33.591Z,9.45
2023-04-04T04:26:01.130Z,9.53
2023-04-04T04:28:33.951Z,9.59
2023-04-04T04:31:10.756Z,9.48
2023-04-04T04:33:49.891Z,9.47
2023-04-04T04:36:20.871Z,9.41
2023-04-04T04:38:54.518Z,9.40
2023-04-04T04:41:22.353Z,9.44
2023-04-04T04:43:52.620Z,9.41
2023-04-04T04:46:20.527Z,9.49
2023-04-04T04:48:47.728Z,9.53
2023-04-04T04:51:16.520Z,9.50
2023-04-04T04:53:48.868Z,9.50
2023-04-04T04:56:16.138Z,9.48
2023-04-04T04:58:47.898Z,9.51
2023-04-04T05:01:22.229Z,9.59
2023-04-04T05:03:52.090Z,9.58
2023-04-04T05:06:26.525Z,9.62
2023-04-04T05:08:54.749Z,9.55
2023-04-04T05:11:29.275Z,9.59
2023-04-04T05:13:56.994Z,9.55
2023-04-04T05:16:25.820Z,9.65
2023-04-04T05:18:56.192Z,9.58
2023-04-04T05:21:23.803Z,9.67
2023-04-04T05:23:52.741Z,9.65
2023-04-04T05:26:21.620Z,9.62
2023-04-04T05:28:51.210Z,9.53
2023-04-04T05:31:19.989Z,9.49
2023-04-04T05:33:49.490Z,9.35
2023-04-04T05:36:26.558Z,9.30
2023-04-04T05:38:58.332Z,9.28
2023-04-04T05:41:29.832Z,9.20
2023-04-04T05:44:03.310Z,9.18
2023-04-04T05:46:30.767Z,9.15
2023-04-04T05:48:57.767Z,9.07
2023-04-04T05:51:25.681Z,9.02
2023-04-04T05:54:07.516Z,9.06
2023-04-04T05:56:35.872Z,9.03
2023-04-04T05:59:05.728Z,8.77
2023-04-04T06:01:38.897Z,8.37
2023-04-04T06:04:11.757Z,8.18
2023-04-04T06:06:39.681Z,7.98
2023-04-04T06:09:08.750Z,7.80
2023-04-04T06:11:35.939Z,7.71
2023-04-04T06:14:08.406Z,7.44
2023-04-04T06:16:36.475Z,7.48
2023-04-04T06:19:03.862Z,7.37
2023-04-04T06:21:31.004Z,7.19
2023-04-04T06:23:58.514Z,7.18
2023-04-04T06:26:27.723Z,7.17
2023-04-04T06:28:55.924Z,7.14
2023-04-04T06:31:32.386Z,7.07
2023-04-04T06:34:06.009Z,7.04
2023-04-04T06:36:38.536Z,6.94
2023-04-04T06:39:05.812Z,6.87
2023-04-04T06:41:32.983Z,6.84
2023-04-04T06:44:00.505Z,6.81
2023-04-04T06:46:28.084Z,6.83
2023-04-04T06:48:55.191Z,6.76
2023-04-04T06:51:22.256Z,6.81
2023-04-04T06:53:50.595Z,6.79
2023-04-04T06:56:17.515Z,6.73
2023-04-04T06:58:44.902Z,6.64
2023-04-04T07:01:12.501Z,6.68
2023-04-04T07:03:39.550Z,6.67
2023-04-04T07:06:06.716Z,6.59
2023-04-04T07:08:36.135Z,6.62
2023-04-04T07:11:04.814Z,6.62
2023-04-04T07:13:31.974Z,6.48
2023-04-04T07:15:58.987Z,6.62
2023-04-04T07:18:26.301Z,6.44
2023-04-04T07:20:53.380Z,6.53
2023-04-04T07:23:20.306Z,6.53
2023-04-04T07:25:47.784Z,6.57
2023-04-04T07:28:14.823Z,6.52
2023-04-04T07:30:42.180Z,6.48
2023-04-04T07:33:09.502Z,6.41
2023-04-04T07:35:36.738Z,6.48
2023-04-04T07:38:04.613Z,6.45
2023-04-04T07:40:31.990Z,6.41
2023-04-04T07:42:58.940Z,6.54
2023-04-04T07:45:25.793Z,6.61
2023-04-04T07:47:52.921Z,6.56
2023-04-04T07:50:19.835Z,6.50
2023-04-04T07:52:54.629Z,6.59
2023-04-04T07:55:25.140Z,6.49
2023-04-04T07:57:53.028Z,6.64
2023-04-04T08:00:22.218Z,6.60
2023-04-04T08:02:54.062Z,6.63
2023-04-04T08:05:21.483Z,6.67
2023-04-04T08:07:48.709Z,6.59
2023-04-04T08:10:17.819Z,6.71
2023-04-04T08:12:45.555Z,6.75
2023-04-04T08:15:12.745Z,6.78
2023-04-04T08:17:40.294Z,6.83
2023-04-04T08:20:07.903Z,6.82
2023-04-04T08:22:35.122Z,6.85
2023-04-04T08:25:02.014Z,6.84
2023-04-04T08:27:29.080Z,6.87
2023-04-04T08:29:55.988Z,6.89
2023-04-04T08:32:23.088Z,6.98
2023-04-04T08:34:49.981Z,6.97
2023-04-04T08:37:17.547Z,6.83
2023-04-04T08:39:44.647Z,6.75
2023-04-04T08:42:17.490Z,6.73
2023-04-04T08:44:45.985Z,6.70
2023-04-04T08:47:13.616Z,6.72
2023-04-04T08:49:45.345Z,6.76
2023-04-04T08:52:36.492Z,6.73
2023-04-04T08:55:05.782Z,6.71
2023-04-04T08:57:33.622Z,6.70
2023-04-04T09:00:02.512Z,6.72
2023-04-04T09:03:11.192Z,6.58
2023-04-04T09:05:38.427Z,6.57
2023-04-04T09:08:07.145Z,6.62
2023-04-04T09:10:36.203Z,6.56
2023-04-04T09:13:14.994Z,6.56
2023-04-04T09:15:54.262Z,6.52
2023-04-04T09:18:21.270Z,6.72
2023-04-04T09:20:49.143Z,6.67
2023-04-04T09:23:21.462Z,6.67
2023-04-04T09:28:26.418Z,6.60
2023-04-04T09:30:53.412Z,6.54
2023-04-04T09:33:24.195Z,6.55
2023-04-04T09:36:07.234Z,6.48
2023-04-04T09:38:37.403Z,6.48
2023-04-04T09:41:09.786Z,6.58
2023-04-04T09:43:39.629Z,6.45
2023-04-04T09:46:07.864Z,6.55
2023-04-04T09:48:37.191Z,6.46
2023-04-04T09:51:12.597Z,6.46
2023-04-04T09:53:42.790Z,6.46
2023-04-04T09:56:09.816Z,6.43
2023-04-04T09:58:44.083Z,6.45
2023-04-04T10:01:18.354Z,6.34
2023-04-04T10:03:52.911Z,6.41
2023-04-04T10:06:21.382Z,6.42
2023-04-04T10:08:49.917Z,6.39
2023-04-04T10:11:38.812Z,6.33
2023-04-04T10:14:05.917Z,6.49
2023-04-04T10:16:38.164Z,6.58
2023-04-04T10:19:08.795Z,6.65
2023-04-04T10:21:37.871Z,6.61
2023-04-04T10:24:09.917Z,6.71
2023-04-04T10:26:37.788Z,6.64
2023-04-04T10:29:06.110Z,6.72
2023-04-04T10:31:37.014Z,6.75
2023-04-04T10:34:33.938Z,6.75
2023-04-04T10:37:15.396Z,6.83
2023-04-04T10:39:50.774Z,6.76
2023-04-04T10:42:19.511Z,6.78
2023-04-04T10:44:47.654Z,6.85
2023-04-04T10:47:18.160Z,6.87
2023-04-04T10:49:46.525Z,6.85
2023-04-04T10:52:22.896Z,6.96
2023-04-04T10:54:52.575Z,7.10
2023-04-04T10:57:20.248Z,7.10
2023-04-04T10:59:59.436Z,7.17
2023-04-04T11:02:59.699Z,7.23
2023-04-04T11:05:34.699Z,7.19
2023-04-04T11:08:08.701Z,7.15
2023-04-04T11:10:42.598Z,7.21
2023-04-04T11:13:17.825Z,7.20
2023-04-04T11:15:58.336Z,7.36
2023-04-04T11:18:49.195Z,7.23
2023-04-04T11:21:24.951Z,7.28
2023-04-04T11:23:52.055Z,7.35
2023-04-04T11:26:34.665Z,7.45
2023-04-04T11:29:04.062Z,7.56
2023-04-04T11:31:45.466Z,7.77
2023-04-04T11:34:14.551Z,7.80
2023-04-04T11:36:43.193Z,7.83
2023-04-04T11:39:16.968Z,7.99
2023-04-04T11:41:54.598Z,8.13
2023-04-04T11:44:23.744Z,8.24
2023-04-04T11:47:04.241Z,8.24
2023-04-04T11:49:35.601Z,8.40
2023-04-04T11:52:10.844Z,8.17
2023-04-04T11:54:39.338Z,8.20
2023-04-04T11:57:07.638Z,8.22
2023-04-04T11:59:40.961Z,8.21
2023-04-04T12:02:10.083Z,8.32
2023-04-04T12:04:41.926Z,8.35
2023-04-04T12:07:11.206Z,8.34
2023-04-04T12:09:39.101Z,8.35
2023-04-04T12:12:07.709Z,8.16
2023-04-04T12:14:34.902Z,8.05
2023-04-04T12:17:03.030Z,7.88
2023-04-04T12:19:30.204Z,7.84
2023-04-04T12:21:58.202Z,7.95
2023-04-04T12:24:25.345Z,7.91
2023-04-04T12:26:53.527Z,7.97
2023-04-04T12:29:22.946Z,7.87
2023-04-04T12:31:52.240Z,8.08
2023-04-04T12:36:58.052Z,8.19
2023-04-04T12:39:29.698Z,8.16
2023-04-04T12:42:03.969Z,7.97
2023-04-04T12:44:37.068Z,8.01
2023-04-04T12:47:08.822Z,8.07
2023-04-04T12:49:39.468Z,8.14
2023-04-04T12:52:16.085Z,8.23
2023-04-04T12:54:43.574Z,8.32
2023-04-04T12:57:12.594Z,8.33
2023-04-04T12:59:40.188Z,8.28
2023-04-04T13:02:09.255Z,8.30
2023-04-04T13:04:36.409Z,8.28
2023-04-04T13:07:04.326Z,8.08
2023-04-04T13:09:32.124Z,7.94
2023-04-04T13:12:08.532Z,8.05
2023-04-04T13:15:01.435Z,8.11
2023-04-04T13:17:45.706Z,8.07
2023-04-04T13:20:14.486Z,7.96
2023-04-04T13:22:42.984Z,8.01
2023-04-04T13:25:10.917Z,7.93
2023-04-04T13:27:38.694Z,8.11
2023-04-04T13:30:07.081Z,8.17
2023-04-04T13:32:34.777Z,8.04
2023-04-04T13:35:01.924Z,8.02
2023-04-04T13:37:28.989Z,8.06
2023-04-04T13:39:56.085Z,8.07
2023-04-04T13:42:27.085Z,7.91
2023-04-04T13:44:54.157Z,7.89
2023-04-04T13:47:22.775Z,7.99
2023-04-04T13:49:49.797Z,7.97
2023-04-04T13:52:17.205Z,8.04
2023-04-04T13:54:44.029Z,7.83
2023-04-04T13:57:11.218Z,7.88
2023-04-04T13:59:38.348Z,7.85
2023-04-04T14:02:05.326Z,7.90
2023-04-04T14:04:34.803Z,7.97
2023-04-04T14:07:01.749Z,7.90
2023-04-04T14:09:29.556Z,7.71
2023-04-04T14:11:56.621Z,7.74
2023-04-04T14:14:23.545Z,7.75
2023-04-04T14:16:50.745Z,7.70
2023-04-04T14:19:17.578Z,7.67
2023-04-04T14:21:44.508Z,7.63
2023-04-04T14:24:11.313Z,7.65
2023-04-04T14:26:38.324Z,7.67
2023-04-04T14:29:05.790Z,7.58
2023-04-04T14:31:35.019Z,7.52
2023-04-04T14:34:03.190Z,7.55
2023-04-04T14:36:31.843Z,7.54
2023-04-04T14:38:58.868Z,7.54
2023-04-04T14:41:25.747Z,7.63
2023-04-04T14:43:52.794Z,7.53
2023-04-04T14:46:19.923Z,7.56
2023-04-04T14:48:47.675Z,7.63
2023-04-04T14:51:15.178Z,7.57
2023-04-04T14:53:42.512Z,7.41
2023-04-04T14:56:09.590Z,7.45
2023-04-04T14:58:36.575Z,7.37
2023-04-04T15:01:03.784Z,7.40
2023-04-04T15:03:30.944Z,7.28
2023-04-04T15:05:58.103Z,7.07
2023-04-04T15:08:25.221Z,6.96
2023-04-04T15:10:52.107Z,6.99
2023-04-04T15:13:19.280Z,7.03
2023-04-04T15:15:52.511Z,6.93
2023-04-04T15:18:19.448Z,7.01
2023-04-04T15:20:46.723Z,7.06
2023-04-04T15:23:14.239Z,7.05
2023-04-04T15:25:41.685Z,6.71
2023-04-04T15:28:08.774Z,6.61
2023-04-04T15:30:35.715Z,6.65
2023-04-04T15:33:02.743Z,6.57
2023-04-04T15:35:29.974Z,6.50
2023-04-04T15:37:56.986Z,6.38
2023-04-04T15:40:24.048Z,6.27
2023-04-04T15:42:51.700Z,6.23
2023-04-04T15:45:18.759Z,6.23
2023-04-04T15:47:46.894Z,6.17
2023-04-04T15:50:13.882Z,5.99
2023-04-04T15:52:42.055Z,6.08
2023-04-04T15:55:14.507Z,5.92
2023-04-04T15:57:44.553Z,5.84
2023-04-04T16:00:13.376Z,5.83
2023-04-04T16:02:40.611Z,5.69
2023-04-04T16:05:08.740Z,5.68
2023-04-04T16:07:35.998Z,5.75
2023-04-04T16:10:03.944Z,5.72
2023-04-04T16:12:30.740Z,5.53
2023-04-04T16:14:57.703Z,5.60
2023-04-04T16:17:26.227Z,5.60
2023-04-04T16:19:53.147Z,5.42
2023-04-04T16:22:20.082Z,5.56
2023-04-04T16:24:47.173Z,5.72
2023-04-04T16:27:14.002Z,5.58
2023-04-04T16:29:41.342Z,5.49
2023-04-04T16:32:08.474Z,5.64
2023-04-04T16:34:37.528Z,5.43
2023-04-04T16:37:05.753Z,5.40
2023-04-04T16:39:36.955Z,5.28
2023-04-04T16:42:04.491Z,5.20
2023-04-04T16:44:31.424Z,5.05
2023-04-04T16:46:58.451Z,5.04
2023-04-04T16:49:25.498Z,5.11
2023-04-04T16:51:52.491Z,5.06
2023-04-04T16:55:05.894Z,4.99
2023-04-04T16:57:48.310Z,4.95
2023-04-04T17:00:15.862Z,4.90
2023-04-04T17:02:45.922Z,4.90
2023-04-04T17:05:15.152Z,4.87
2023-04-04T17:07:46.842Z,4.98
2023-04-04T17:10:14.351Z,4.89
2023-04-04T17:12:43.204Z,4.84
2023-04-04T17:15:10.802Z,4.82
2023-04-04T17:17:37.885Z,4.80
2023-04-04T17:20:05.567Z,4.92
2023-04-04T17:22:36.272Z,4.90
2023-04-04T17:25:17.553Z,4.87
2023-04-04T17:27:44.360Z,4.86
2023-04-04T17:30:11.955Z,4.86
2023-04-04T17:32:39.087Z,4.93
2023-04-04T17:35:07.014Z,5.00
2023-04-04T17:37:33.995Z,5.02
2023-04-04T17:40:04.160Z,5.08
2023-04-04T17:42:32.185Z,5.11
2023-04-04T17:44:59.441Z,4.96
2023-04-04T17:47:26.440Z,4.99
2023-04-04T17:49:54.053Z,4.90
2023-04-04T17:52:21.151Z,4.76
2023-04-04T17:54:48.765Z,4.78
2023-04-04T17:57:18.571Z,4.89
2023-04-04T17:59:46.327Z,4.87
2023-04-04T18:02:13.819Z,4.87
2023-04-04T18:04:40.650Z,4.91
2023-04-04T18:07:08.679Z,4.87
2023-04-04T18:09:35.509Z,4.80
2023-04-04T18:12:02.833Z,4.87
2023-04-04T18:14:29.762Z,4.92
2023-04-04T18:16:56.814Z,5.03
2023-04-04T18:19:24.042Z,5.03
2023-04-04T18:21:51.654Z,5.03
2023-04-04T18:24:18.571Z,4.99
2023-04-04T18:26:45.807Z,4.82
2023-04-04T18:29:14.948Z,4.89
2023-04-04T18:31:41.824Z,4.90
2023-04-04T18:34:08.929Z,4.95
2023-04-04T18:36:36.555Z,4.89
2023-04-04T18:39:04.178Z,4.91
2023-04-04T18:41:31.270Z,4.77
2023-04-04T18:43:58.181Z,4.75
2023-04-04T18:46:25.385Z,4.78
2023-04-04T18:48:52.361Z,4.69
2023-04-04T18:51:20.512Z,4.74
2023-04-04T18:53:49.247Z,4.78
2023-04-04T18:56:16.269Z,4.82
2023-04-04T18:58:43.470Z,4.88
2023-04-04T19:01:11.913Z,4.78
2023-04-04T19:03:44.152Z,4.62
2023-04-04T19:06:12.554Z,4.75
2023-04-04T19:08:40.910Z,4.72
2023-04-04T19:11:09.010Z,4.72
2023-04-04T19:13:36.116Z,4.68
2023-04-04T19:16:03.594Z,4.73
2023-04-04T19:18:30.729Z,4.83
2023-04-04T19:20:58.554Z,4.99
2023-04-04T19:23:25.708Z,4.91
2023-04-04T19:25:52.693Z,4.94
2023-04-04T19:28:19.762Z,5.05
2023-04-04T19:30:49.156Z,5.05
2023-04-04T19:33:24.587Z,5.11
2023-04-04T19:35:59.225Z,5.07
2023-04-04T19:38:33.909Z,5.08
2023-04-04T19:41:02.784Z,5.07
2023-04-04T19:43:31.348Z,5.05
2023-04-04T19:46:06.767Z,5.02
2023-04-04T19:48:51.682Z,5.01
2023-04-04T19:51:18.615Z,5.04
2023-04-04T19:54:05.928Z,5.03
2023-04-04T19:56:37.591Z,5.02
2023-04-04T19:59:25.994Z,5.02
2023-04-04T20:02:00.175Z,5.02
2023-04-04T20:04:30.019Z,5.05
2023-04-04T20:06:56.865Z,5.04
2023-04-04T20:09:34.983Z,4.98
2023-04-04T20:12:02.210Z,5.07
2023-04-04T20:14:31.879Z,5.01
2023-04-04T20:16:59.000Z,5.16
2023-04-04T20:19:29.285Z,5.13
2023-04-04T20:21:56.702Z,5.14
2023-04-04T20:24:24.077Z,4.98
2023-04-04T20:26:55.108Z,4.90
2023-04-04T20:29:24.422Z,4.93
2023-04-04T20:31:57.160Z,4.80
2023-04-04T20:34:47.120Z,4.74
2023-04-04T20:37:22.950Z,4.62
2023-04-04T20:39:55.814Z,4.72
2023-04-04T20:42:41.865Z,4.68
2023-04-04T20:45:08.617Z,4.73
2023-04-04T20:47:45.140Z,4.70
2023-04-04T20:50:21.238Z,4.62
2023-04-04T20:52:53.410Z,4.64
2023-04-04T20:55:22.788Z,4.62
2023-04-04T20:57:52.678Z,4.72
2023-04-04T21:00:26.978Z,4.77
2023-04-04T21:02:53.845Z,4.75
2023-04-04T21:05:32.566Z,4.78
2023-04-04T21:08:01.032Z,4.86
2023-04-04T21:10:27.814Z,4.84
2023-04-04T21:12:57.117Z,4.67
2023-04-04T21:15:30.238Z,4.84
2023-04-04T21:18:02.650Z,4.81
2023-04-04T21:20:47.936Z,4.86
2023-04-04T21:23:27.352Z,4.88
2023-04-04T21:25:59.394Z,4.90
2023-04-04T21:28:31.431Z,4.89
2023-04-04T21:30:59.700Z,4.91
2023-04-04T21:33:27.364Z,4.95
2023-04-04T21:35:56.379Z,4.85
2023-04-04T21:38:23.338Z,5.02
2023-04-04T21:40:50.176Z,4.94
2023-04-04T21:43:17.230Z,4.85
2023-04-04T21:45:44.536Z,4.81
2023-04-04T21:48:12.028Z,4.82
2023-04-04T21:50:39.372Z,4.78
2023-04-04T21:53:06.759Z,4.72
2023-04-04T21:55:33.597Z,4.68
2023-04-04T21:58:00.856Z,4.75
2023-04-04T22:00:28.048Z,4.78
2023-04-04T22:02:54.896Z,4.78
2023-04-04T22:05:29.168Z,4.84
2023-04-04T22:08:03.165Z,4.83
2023-04-04T22:10:31.302Z,4.73
2023-04-04T22:13:00.409Z,4.84
2023-04-04T22:15:30.142Z,4.85
2023-04-04T22:18:04.061Z,4.84
2023-04-04T22:20:34.904Z,4.89
2023-04-04T22:23:06.090Z,4.98
2023-04-04T22:25:34.314Z,4.94
2023-04-04T22:28:02.182Z,4.98
2023-04-04T22:30:30.185Z,5.00
2023-04-04T22:32:59.836Z,4.96
2023-04-04T22:35:28.110Z,5.03
2023-04-04T22:38:01.060Z,5.08
2023-04-04T22:40:30.691Z,5.05
2023-04-04T22:42:58.385Z,5.03
2023-04-04T22:45:26.833Z,5.11
2023-04-04T22:47:55.016Z,5.12
2023-04-04T22:50:23.591Z,5.17
2023-04-04T22:52:52.779Z,5.21
2023-04-04T22:55:22.876Z,5.22
2023-04-04T22:57:49.889Z,5.30
2023-04-04T23:00:17.639Z,5.22
2023-04-04T23:02:46.696Z,5.32
2023-04-04T23:05:16.353Z,5.23
2023-04-04T23:07:44.331Z,5.12
2023-04-04T23:10:13.846Z,5.01
2023-04-04T23:12:40.883Z,4.98
2023-04-04T23:15:08.815Z,4.89
2023-04-04T23:17:36.885Z,4.99
2023-04-04T23:20:10.449Z,4.69
2023-04-04T23:22:38.924Z,4.69
2023-04-04T23:25:08.045Z,4.73
2023-04-04T23:27:35.586Z,4.82
2023-04-04T23:30:05.248Z,4.81
2023-04-04T23:32:32.535Z,4.71
2023-04-04T23:34:59.843Z,4.76
2023-04-04T23:37:27.037Z,4.72
2023-04-04T23:39:54.824Z,4.76
2023-04-04T23:42:21.950Z,4.56
2023-04-04T23:44:48.815Z,4.90
2023-04-04T23:47:16.291Z,4.88
2023-04-04T23:49:43.506Z,4.93
2023-04-04T23:52:10.667Z,4.91
2023-04-04T23:54:37.535Z,4.74
2023-04-04T23:57:04.849Z,4.66
2023-04-04T23:59:31.894Z,4.69
